sensor_id;sensor_type;location;lat;lon;timestamp;pressure;altitude;pressure_sealevel;temperature
79756;BMP280;69239;50.678;12.280;2023-05-13T00:01:14;97879.75;;;12.04
79756;BMP280;69239;50.678;12.280;2023-05-13T00:03:40;97872.75;;;11.99
79756;BMP280;69239;50.678;12.280;2023-05-13T00:06:05;97876.63;;;11.93
79756;BMP280;69239;50.678;12.280;2023-05-13T00:08:30;97877.06;;;11.86
79756;BMP280;69239;50.678;12.280;2023-05-13T00:10:56;97874.44;;;11.78
79756;BMP280;69239;50.678;12.280;2023-05-13T00:13:21;97874.88;;;11.71
79756;BMP280;69239;50.678;12.280;2023-05-13T00:15:47;97881.66;;;11.64
79756;BMP280;69239;50.678;12.280;2023-05-13T00:18:12;97882.72;;;11.54
79756;BMP280;69239;50.678;12.280;2023-05-13T00:20:37;97885.19;;;11.50
79756;BMP280;69239;50.678;12.280;2023-05-13T00:23:03;97890.75;;;11.40
79756;BMP280;69239;50.678;12.280;2023-05-13T00:25:28;97884.81;;;11.35
79756;BMP280;69239;50.678;12.280;2023-05-13T00:27:53;97887.28;;;11.31
79756;BMP280;69239;50.678;12.280;2023-05-13T00:30:19;97890.06;;;11.26
79756;BMP280;69239;50.678;12.280;2023-05-13T00:32:45;97886.25;;;11.18
79756;BMP280;69239;50.678;12.280;2023-05-13T00:35:10;97885.53;;;11.18
79756;BMP280;69239;50.678;12.280;2023-05-13T00:37:35;97884.56;;;11.14
79756;BMP280;69239;50.678;12.280;2023-05-13T00:40:01;97878.34;;;11.10
79756;BMP280;69239;50.678;12.280;2023-05-13T00:42:26;97873.84;;;11.10
79756;BMP280;69239;50.678;12.280;2023-05-13T00:44:52;97876.78;;;11.09
79756;BMP280;69239;50.678;12.280;2023-05-13T00:47:17;97884.69;;;11.09
79756;BMP280;69239;50.678;12.280;2023-05-13T00:49:43;97878.19;;;11.06
79756;BMP280;69239;50.678;12.280;2023-05-13T00:52:08;97873.47;;;11.03
79756;BMP280;69239;50.678;12.280;2023-05-13T00:54:33;97882.59;;;10.97
79756;BMP280;69239;50.678;12.280;2023-05-13T00:56:59;97881.38;;;10.94
79756;BMP280;69239;50.678;12.280;2023-05-13T00:59:27;97880.38;;;10.90
79756;BMP280;69239;50.678;12.280;2023-05-13T01:04:43;97884.09;;;10.89
79756;BMP280;69239;50.678;12.280;2023-05-13T01:12:45;97884.94;;;10.76
79756;BMP280;69239;50.678;12.280;2023-05-13T01:15:15;97890.03;;;10.73
79756;BMP280;69239;50.678;12.280;2023-05-13T01:17:58;97896.19;;;10.68
79756;BMP280;69239;50.678;12.280;2023-05-13T01:20:26;97888.59;;;10.67
79756;BMP280;69239;50.678;12.280;2023-05-13T01:22:52;97889.50;;;10.62
79756;BMP280;69239;50.678;12.280;2023-05-13T01:25:17;97900.63;;;10.59
79756;BMP280;69239;50.678;12.280;2023-05-13T01:27:43;97894.09;;;10.56
79756;BMP280;69239;50.678;12.280;2023-05-13T01:30:09;97892.84;;;10.54
79756;BMP280;69239;50.678;12.280;2023-05-13T01:32:36;97891.88;;;10.50
79756;BMP280;69239;50.678;12.280;2023-05-13T01:35:02;97888.19;;;10.51
79756;BMP280;69239;50.678;12.280;2023-05-13T01:37:28;97887.19;;;10.47
79756;BMP280;69239;50.678;12.280;2023-05-13T01:39:54;97895.59;;;10.49
79756;BMP280;69239;50.678;12.280;2023-05-13T01:42:20;97896.38;;;10.49
79756;BMP280;69239;50.678;12.280;2023-05-13T01:44:45;97892.47;;;10.47
79756;BMP280;69239;50.678;12.280;2023-05-13T01:47:11;97893.22;;;10.47
79756;BMP280;69239;50.678;12.280;2023-05-13T01:49:36;97891.88;;;10.50
79756;BMP280;69239;50.678;12.280;2023-05-13T01:52:01;97885.97;;;10.44
79756;BMP280;69239;50.678;12.280;2023-05-13T01:54:28;97895.81;;;10.39
79756;BMP280;69239;50.678;12.280;2023-05-13T01:56:54;97890.66;;;10.34
79756;BMP280;69239;50.678;12.280;2023-05-13T01:59:20;97897.97;;;10.37
79756;BMP280;69239;50.678;12.280;2023-05-13T02:01:45;97889.88;;;10.33
79756;BMP280;69239;50.678;12.280;2023-05-13T02:04:11;97884.31;;;10.35
79756;BMP280;69239;50.678;12.280;2023-05-13T02:06:36;97887.25;;;10.33
79756;BMP280;69239;50.678;12.280;2023-05-13T02:09:02;97890.38;;;10.35
79756;BMP280;69239;50.678;12.280;2023-05-13T02:11:27;97891.94;;;10.36
79756;BMP280;69239;50.678;12.280;2023-05-13T02:13:52;97885.38;;;10.34
79756;BMP280;69239;50.678;12.280;2023-05-13T02:16:18;97883.84;;;10.32
79756;BMP280;69239;50.678;12.280;2023-05-13T02:18:44;97884.91;;;10.31
79756;BMP280;69239;50.678;12.280;2023-05-13T02:21:09;97876.22;;;10.31
79756;BMP280;69239;50.678;12.280;2023-05-13T02:23:35;97885.38;;;10.34
79756;BMP280;69239;50.678;12.280;2023-05-13T02:26:00;97887.06;;;10.29
79756;BMP280;69239;50.678;12.280;2023-05-13T02:28:25;97881.03;;;10.29
79756;BMP280;69239;50.678;12.280;2023-05-13T02:30:51;97876.06;;;10.27
79756;BMP280;69239;50.678;12.280;2023-05-13T02:33:16;97883.66;;;10.29
79756;BMP280;69239;50.678;12.280;2023-05-13T02:35:42;97880.84;;;10.25
79756;BMP280;69239;50.678;12.280;2023-05-13T02:38:10;97875.09;;;10.23
79756;BMP280;69239;50.678;12.280;2023-05-13T02:40:36;97875.19;;;10.18
79756;BMP280;69239;50.678;12.280;2023-05-13T02:43:01;97885.44;;;10.20
79756;BMP280;69239;50.678;12.280;2023-05-13T02:45:26;97878.91;;;10.17
79756;BMP280;69239;50.678;12.280;2023-05-13T02:47:52;97877.13;;;10.13
79756;BMP280;69239;50.678;12.280;2023-05-13T02:50:17;97867.72;;;10.12
79756;BMP280;69239;50.678;12.280;2023-05-13T02:52:43;97871.72;;;10.09
79756;BMP280;69239;50.678;12.280;2023-05-13T02:55:09;97873.69;;;10.04
79756;BMP280;69239;50.678;12.280;2023-05-13T02:57:34;97878.16;;;10.03
79756;BMP280;69239;50.678;12.280;2023-05-13T03:00:02;97875.59;;;9.98
79756;BMP280;69239;50.678;12.280;2023-05-13T03:02:28;97871.72;;;9.95
79756;BMP280;69239;50.678;12.280;2023-05-13T03:04:54;97876.31;;;9.90
79756;BMP280;69239;50.678;12.280;2023-05-13T03:07:19;97870.56;;;9.88
79756;BMP280;69239;50.678;12.280;2023-05-13T03:09:45;97872.22;;;9.84
79756;BMP280;69239;50.678;12.280;2023-05-13T03:12:10;97878.66;;;9.78
79756;BMP280;69239;50.678;12.280;2023-05-13T03:14:35;97879.53;;;9.73
79756;BMP280;69239;50.678;12.280;2023-05-13T03:17:04;97875.91;;;9.69
79756;BMP280;69239;50.678;12.280;2023-05-13T03:19:30;97872.72;;;9.58
79756;BMP280;69239;50.678;12.280;2023-05-13T03:21:55;97872.72;;;9.58
79756;BMP280;69239;50.678;12.280;2023-05-13T03:24:21;97861.03;;;9.51
79756;BMP280;69239;50.678;12.280;2023-05-13T03:26:46;97874.47;;;9.49
79756;BMP280;69239;50.678;12.280;2023-05-13T03:29:11;97865.69;;;9.40
79756;BMP280;69239;50.678;12.280;2023-05-13T03:31:37;97880.06;;;9.43
79756;BMP280;69239;50.678;12.280;2023-05-13T03:34:02;97873.09;;;9.38
79756;BMP280;69239;50.678;12.280;2023-05-13T03:36:28;97874.44;;;9.35
79756;BMP280;69239;50.678;12.280;2023-05-13T03:38:53;97875.31;;;9.31
79756;BMP280;69239;50.678;12.280;2023-05-13T03:41:18;97872.69;;;9.31
79756;BMP280;69239;50.678;12.280;2023-05-13T03:43:45;97873.25;;;9.28
79756;BMP280;69239;50.678;12.280;2023-05-13T03:46:10;97877.72;;;9.27
79756;BMP280;69239;50.678;12.280;2023-05-13T03:48:36;97873.34;;;9.23
79756;BMP280;69239;50.678;12.280;2023-05-13T03:51:01;97875.22;;;9.22
79756;BMP280;69239;50.678;12.280;2023-05-13T03:53:26;97881.81;;;9.20
79756;BMP280;69239;50.678;12.280;2023-05-13T03:55:52;97883.94;;;9.18
79756;BMP280;69239;50.678;12.280;2023-05-13T03:58:17;97875.06;;;9.14
79756;BMP280;69239;50.678;12.280;2023-05-13T04:00:44;97874.59;;;9.12
79756;BMP280;69239;50.678;12.280;2023-05-13T04:03:10;97886.94;;;9.11
79756;BMP280;69239;50.678;12.280;2023-05-13T04:05:36;97880.44;;;9.09
79756;BMP280;69239;50.678;12.280;2023-05-13T04:08:01;97879.91;;;9.06
79756;BMP280;69239;50.678;12.280;2023-05-13T04:10:27;97884.09;;;9.07
79756;BMP280;69239;50.678;12.280;2023-05-13T04:12:52;97892.50;;;9.10
79756;BMP280;69239;50.678;12.280;2023-05-13T04:15:17;97890.69;;;9.05
79756;BMP280;69239;50.678;12.280;2023-05-13T04:17:43;97895.66;;;9.06
79756;BMP280;69239;50.678;12.280;2023-05-13T04:20:08;97898.28;;;9.06
79756;BMP280;69239;50.678;12.280;2023-05-13T04:22:34;97893.03;;;9.06
79756;BMP280;69239;50.678;12.280;2023-05-13T04:24:59;97889.88;;;9.10
79756;BMP280;69239;50.678;12.280;2023-05-13T04:27:25;97896.69;;;9.11
79756;BMP280;69239;50.678;12.280;2023-05-13T04:29:50;97894.06;;;9.11
79756;BMP280;69239;50.678;12.280;2023-05-13T04:32:16;97895.59;;;9.12
79756;BMP280;69239;50.678;12.280;2023-05-13T04:34:46;97896.84;;;9.14
79756;BMP280;69239;50.678;12.280;2023-05-13T04:37:12;97901.06;;;9.15
79756;BMP280;69239;50.678;12.280;2023-05-13T04:39:37;97911.19;;;9.22
79756;BMP280;69239;50.678;12.280;2023-05-13T04:42:03;97916.66;;;9.25
79756;BMP280;69239;50.678;12.280;2023-05-13T04:44:28;97910.25;;;9.31
79756;BMP280;69239;50.678;12.280;2023-05-13T04:46:53;97913.56;;;9.37
79756;BMP280;69239;50.678;12.280;2023-05-13T04:49:19;97914.56;;;9.41
79756;BMP280;69239;50.678;12.280;2023-05-13T04:51:44;97911.84;;;9.46
79756;BMP280;69239;50.678;12.280;2023-05-13T04:54:09;97913.88;;;9.49
79756;BMP280;69239;50.678;12.280;2023-05-13T04:56:35;97926.88;;;9.59
79756;BMP280;69239;50.678;12.280;2023-05-13T04:59:00;97912.63;;;9.60
79756;BMP280;69239;50.678;12.280;2023-05-13T05:01:25;97912.81;;;9.64
79756;BMP280;69239;50.678;12.280;2023-05-13T05:03:51;97927.63;;;9.74
79756;BMP280;69239;50.678;12.280;2023-05-13T05:06:16;97927.44;;;9.84
79756;BMP280;69239;50.678;12.280;2023-05-13T05:08:42;97925.72;;;9.93
79756;BMP280;69239;50.678;12.280;2023-05-13T05:11:07;97918.69;;;10.02
79756;BMP280;69239;50.678;12.280;2023-05-13T05:13:34;97920.00;;;10.13
79756;BMP280;69239;50.678;12.280;2023-05-13T05:15:59;97929.28;;;10.24
79756;BMP280;69239;50.678;12.280;2023-05-13T05:18:24;97926.41;;;10.35
79756;BMP280;69239;50.678;12.280;2023-05-13T05:20:50;97925.75;;;10.43
79756;BMP280;69239;50.678;12.280;2023-05-13T05:23:15;97925.50;;;10.53
79756;BMP280;69239;50.678;12.280;2023-05-13T05:25:40;97921.09;;;10.62
79756;BMP280;69239;50.678;12.280;2023-05-13T05:28:06;97916.38;;;10.73
79756;BMP280;69239;50.678;12.280;2023-05-13T05:30:33;97926.88;;;10.86
79756;BMP280;69239;50.678;12.280;2023-05-13T05:33:04;97923.69;;;10.98
79756;BMP280;69239;50.678;12.280;2023-05-13T05:35:30;97922.03;;;11.11
79756;BMP280;69239;50.678;12.280;2023-05-13T05:37:55;97926.78;;;11.22
79756;BMP280;69239;50.678;12.280;2023-05-13T05:40:21;97926.22;;;11.34
79756;BMP280;69239;50.678;12.280;2023-05-13T05:42:46;97927.50;;;11.45
79756;BMP280;69239;50.678;12.280;2023-05-13T05:45:11;97922.91;;;11.59
79756;BMP280;69239;50.678;12.280;2023-05-13T05:47:37;97920.94;;;11.74
79756;BMP280;69239;50.678;12.280;2023-05-13T05:50:03;97922.09;;;11.90
79756;BMP280;69239;50.678;12.280;2023-05-13T05:52:28;97926.44;;;12.03
79756;BMP280;69239;50.678;12.280;2023-05-13T05:54:53;97926.31;;;12.17
79756;BMP280;69239;50.678;12.280;2023-05-13T05:57:19;97925.28;;;12.27
79756;BMP280;69239;50.678;12.280;2023-05-13T05:59:44;97921.09;;;12.43
79756;BMP280;69239;50.678;12.280;2023-05-13T06:02:10;97927.31;;;12.55
79756;BMP280;69239;50.678;12.280;2023-05-13T06:04:35;97926.19;;;12.65
79756;BMP280;69239;50.678;12.280;2023-05-13T06:07:00;97930.53;;;12.78
79756;BMP280;69239;50.678;12.280;2023-05-13T06:09:26;97928.66;;;12.87
79756;BMP280;69239;50.678;12.280;2023-05-13T06:11:51;97927.69;;;13.01
79756;BMP280;69239;50.678;12.280;2023-05-13T06:14:16;97926.63;;;13.10
79756;BMP280;69239;50.678;12.280;2023-05-13T06:16:42;97925.94;;;13.22
79756;BMP280;69239;50.678;12.280;2023-05-13T06:19:07;97929.81;;;13.33
79756;BMP280;69239;50.678;12.280;2023-05-13T06:21:32;97923.72;;;13.41
79756;BMP280;69239;50.678;12.280;2023-05-13T06:23:58;97928.31;;;13.53
79756;BMP280;69239;50.678;12.280;2023-05-13T06:26:24;97932.44;;;13.71
79756;BMP280;69239;50.678;12.280;2023-05-13T06:28:50;97928.91;;;13.88
79756;BMP280;69239;50.678;12.280;2023-05-13T06:31:16;97931.00;;;14.03
79756;BMP280;69239;50.678;12.280;2023-05-13T06:33:41;97931.53;;;14.17
79756;BMP280;69239;50.678;12.280;2023-05-13T06:36:07;97934.38;;;14.33
79756;BMP280;69239;50.678;12.280;2023-05-13T06:38:33;97928.81;;;14.47
79756;BMP280;69239;50.678;12.280;2023-05-13T06:40:59;97924.78;;;14.62
79756;BMP280;69239;50.678;12.280;2023-05-13T06:43:24;97926.16;;;14.80
79756;BMP280;69239;50.678;12.280;2023-05-13T06:45:50;97922.91;;;14.95
79756;BMP280;69239;50.678;12.280;2023-05-13T06:48:15;97918.41;;;15.20
79756;BMP280;69239;50.678;12.280;2023-05-13T06:50:41;97921.53;;;15.46
79756;BMP280;69239;50.678;12.280;2023-05-13T06:53:08;97914.31;;;15.71
79756;BMP280;69239;50.678;12.280;2023-05-13T06:55:34;97926.13;;;15.98
79756;BMP280;69239;50.678;12.280;2023-05-13T06:58:06;97929.59;;;16.14
79756;BMP280;69239;50.678;12.280;2023-05-13T07:00:34;97933.97;;;16.35
79756;BMP280;69239;50.678;12.280;2023-05-13T07:03:00;97932.47;;;16.49
79756;BMP280;69239;50.678;12.280;2023-05-13T07:05:27;97922.38;;;16.55
79756;BMP280;69239;50.678;12.280;2023-05-13T07:07:53;97927.19;;;16.65
79756;BMP280;69239;50.678;12.280;2023-05-13T07:10:18;97926.72;;;16.75
79756;BMP280;69239;50.678;12.280;2023-05-13T07:12:43;97919.34;;;16.84
79756;BMP280;69239;50.678;12.280;2023-05-13T07:15:09;97925.19;;;17.06
79756;BMP280;69239;50.678;12.280;2023-05-13T07:17:34;97915.81;;;17.27
79756;BMP280;69239;50.678;12.280;2023-05-13T07:20:00;97920.25;;;17.55
79756;BMP280;69239;50.678;12.280;2023-05-13T07:22:26;97924.59;;;17.63
79756;BMP280;69239;50.678;12.280;2023-05-13T07:24:52;97919.63;;;17.61
79756;BMP280;69239;50.678;12.280;2023-05-13T07:27:17;97919.47;;;17.54
79756;BMP280;69239;50.678;12.280;2023-05-13T07:29:43;97920.19;;;17.51
79756;BMP280;69239;50.678;12.280;2023-05-13T07:32:08;97923.47;;;17.64
79756;BMP280;69239;50.678;12.280;2023-05-13T07:34:34;97915.88;;;17.82
79756;BMP280;69239;50.678;12.280;2023-05-13T07:36:59;97924.00;;;17.89
79756;BMP280;69239;50.678;12.280;2023-05-13T07:39:24;97919.38;;;17.86
79756;BMP280;69239;50.678;12.280;2023-05-13T07:41:50;97916.63;;;17.82
79756;BMP280;69239;50.678;12.280;2023-05-13T07:44:16;97922.19;;;17.93
79756;BMP280;69239;50.678;12.280;2023-05-13T07:46:41;97919.94;;;18.14
79756;BMP280;69239;50.678;12.280;2023-05-13T07:49:06;97915.31;;;18.50
79756;BMP280;69239;50.678;12.280;2023-05-13T07:51:34;97911.56;;;18.77
79756;BMP280;69239;50.678;12.280;2023-05-13T07:53:59;97913.47;;;18.99
79756;BMP280;69239;50.678;12.280;2023-05-13T07:56:25;97911.13;;;19.21
79756;BMP280;69239;50.678;12.280;2023-05-13T07:58:50;97901.41;;;19.35
79756;BMP280;69239;50.678;12.280;2023-05-13T08:01:15;97906.19;;;19.53
79756;BMP280;69239;50.678;12.280;2023-05-13T08:03:41;97907.53;;;19.66
79756;BMP280;69239;50.678;12.280;2023-05-13T08:06:06;97909.94;;;19.74
79756;BMP280;69239;50.678;12.280;2023-05-13T08:08:32;97904.38;;;19.87
79756;BMP280;69239;50.678;12.280;2023-05-13T08:10:58;97911.16;;;20.14
79756;BMP280;69239;50.678;12.280;2023-05-13T08:13:23;97903.91;;;20.51
79756;BMP280;69239;50.678;12.280;2023-05-13T08:15:49;97902.19;;;20.77
79756;BMP280;69239;50.678;12.280;2023-05-13T08:18:16;97896.50;;;20.82
79756;BMP280;69239;50.678;12.280;2023-05-13T08:20:42;97899.97;;;20.86
79756;BMP280;69239;50.678;12.280;2023-05-13T08:23:07;97902.19;;;20.77
79756;BMP280;69239;50.678;12.280;2023-05-13T08:25:32;97904.31;;;20.54
79756;BMP280;69239;50.678;12.280;2023-05-13T08:27:58;97897.28;;;20.38
79756;BMP280;69239;50.678;12.280;2023-05-13T08:30:23;97897.19;;;20.31
79756;BMP280;69239;50.678;12.280;2023-05-13T08:32:48;97899.47;;;20.29
79756;BMP280;69239;50.678;12.280;2023-05-13T08:35:14;97894.97;;;20.37
79756;BMP280;69239;50.678;12.280;2023-05-13T08:37:39;97898.09;;;20.42
79756;BMP280;69239;50.678;12.280;2023-05-13T08:40:05;97900.34;;;20.40
79756;BMP280;69239;50.678;12.280;2023-05-13T08:42:32;97899.59;;;20.40
79756;BMP280;69239;50.678;12.280;2023-05-13T08:44:57;97899.59;;;20.40
79756;BMP280;69239;50.678;12.280;2023-05-13T08:47:34;97898.84;;;20.43
79756;BMP280;69239;50.678;12.280;2023-05-13T08:50:01;97898.91;;;20.46
79756;BMP280;69239;50.678;12.280;2023-05-13T08:52:27;97902.72;;;20.52
79756;BMP280;69239;50.678;12.280;2023-05-13T08:54:53;97909.75;;;20.64
79756;BMP280;69239;50.678;12.280;2023-05-13T08:57:18;97907.63;;;20.84
79756;BMP280;69239;50.678;12.280;2023-05-13T08:59:43;97913.38;;;20.89
79756;BMP280;69239;50.678;12.280;2023-05-13T09:02:09;97904.59;;;20.89
79756;BMP280;69239;50.678;12.280;2023-05-13T09:04:38;97913.03;;;20.95
79756;BMP280;69239;50.678;12.280;2023-05-13T09:07:06;97903.94;;;21.06
79756;BMP280;69239;50.678;12.280;2023-05-13T09:09:32;97898.72;;;21.27
79756;BMP280;69239;50.678;12.280;2023-05-13T09:11:57;97900.72;;;21.45
79756;BMP280;69239;50.678;12.280;2023-05-13T09:14:28;97901.50;;;21.49
79756;BMP280;69239;50.678;12.280;2023-05-13T09:16:55;97908.09;;;21.62
79756;BMP280;69239;50.678;12.280;2023-05-13T09:19:23;97901.94;;;21.58
79756;BMP280;69239;50.678;12.280;2023-05-13T09:21:49;97909.56;;;21.56
79756;BMP280;69239;50.678;12.280;2023-05-13T09:24:15;97896.16;;;21.56
79756;BMP280;69239;50.678;12.280;2023-05-13T09:26:45;97896.16;;;21.56
79756;BMP280;69239;50.678;12.280;2023-05-13T09:29:27;97902.66;;;21.55
79756;BMP280;69239;50.678;12.280;2023-05-13T09:32:00;97905.75;;;21.57
79756;BMP280;69239;50.678;12.280;2023-05-13T09:34:29;97912.66;;;21.58
79756;BMP280;69239;50.678;12.280;2023-05-13T09:37:05;97910.38;;;21.60
79756;BMP280;69239;50.678;12.280;2023-05-13T09:39:40;97920.97;;;21.39
79756;BMP280;69239;50.678;12.280;2023-05-13T09:42:15;97916.91;;;20.97
79756;BMP280;69239;50.678;12.280;2023-05-13T09:44:42;97925.75;;;20.61
79756;BMP280;69239;50.678;12.280;2023-05-13T09:47:14;97916.28;;;20.26
79756;BMP280;69239;50.678;12.280;2023-05-13T09:49:41;97918.66;;;20.01
79756;BMP280;69239;50.678;12.280;2023-05-13T09:52:09;97917.31;;;19.85
79756;BMP280;69239;50.678;12.280;2023-05-13T09:54:36;97917.84;;;19.67
79756;BMP280;69239;50.678;12.280;2023-05-13T09:57:02;97921.53;;;19.56
79756;BMP280;69239;50.678;12.280;2023-05-13T09:59:33;97927.50;;;19.46
79756;BMP280;69239;50.678;12.280;2023-05-13T10:01:59;97927.50;;;19.46
79756;BMP280;69239;50.678;12.280;2023-05-13T10:04:27;97924.53;;;19.54
79756;BMP280;69239;50.678;12.280;2023-05-13T10:06:52;97915.69;;;19.76
79756;BMP280;69239;50.678;12.280;2023-05-13T10:09:18;97924.94;;;19.83
79756;BMP280;69239;50.678;12.280;2023-05-13T10:11:46;97924.94;;;19.83
79756;BMP280;69239;50.678;12.280;2023-05-13T10:14:12;97920.78;;;19.89
79756;BMP280;69239;50.678;12.280;2023-05-13T10:16:38;97925.16;;;20.00
79756;BMP280;69239;50.678;12.280;2023-05-13T10:19:04;97923.38;;;20.15
79756;BMP280;69239;50.678;12.280;2023-05-13T10:21:30;97918.63;;;20.35
79756;BMP280;69239;50.678;12.280;2023-05-13T10:23:57;97921.84;;;20.51
79756;BMP280;69239;50.678;12.280;2023-05-13T10:26:22;97908.63;;;20.69
79756;BMP280;69239;50.678;12.280;2023-05-13T10:28:49;97901.38;;;20.73
79756;BMP280;69239;50.678;12.280;2023-05-13T10:31:17;97905.25;;;20.75
79756;BMP280;69239;50.678;12.280;2023-05-13T10:33:43;97907.53;;;20.77
79756;BMP280;69239;50.678;12.280;2023-05-13T10:36:19;97900.34;;;20.81
79756;BMP280;69239;50.678;12.280;2023-05-13T10:44:27;97904.97;;;20.91
79756;BMP280;69239;50.678;12.280;2023-05-13T10:46:55;97907.31;;;20.96
79756;BMP280;69239;50.678;12.280;2023-05-13T10:49:21;97907.00;;;21.05
79756;BMP280;69239;50.678;12.280;2023-05-13T10:51:48;97911.88;;;20.88
79756;BMP280;69239;50.678;12.280;2023-05-13T10:54:21;97906.66;;;20.62
79756;BMP280;69239;50.678;12.280;2023-05-13T10:56:57;97901.13;;;20.44
79756;BMP280;69239;50.678;12.280;2023-05-13T10:59:23;97905.06;;;20.54
79756;BMP280;69239;50.678;12.280;2023-05-13T11:01:48;97906.72;;;20.73
79756;BMP280;69239;50.678;12.280;2023-05-13T11:04:16;97898.41;;;20.81
79756;BMP280;69239;50.678;12.280;2023-05-13T11:06:43;97899.47;;;20.70
79756;BMP280;69239;50.678;12.280;2023-05-13T11:09:27;97901.97;;;20.52
79756;BMP280;69239;50.678;12.280;2023-05-13T11:11:57;97906.44;;;20.37
79756;BMP280;69239;50.678;12.280;2023-05-13T11:14:26;97895.69;;;20.30
79756;BMP280;69239;50.678;12.280;2023-05-13T11:19:28;97896.34;;;20.24
79756;BMP280;69239;50.678;12.280;2023-05-13T11:22:04;97891.06;;;20.27
79756;BMP280;69239;50.678;12.280;2023-05-13T11:24:30;97901.53;;;20.43
79756;BMP280;69239;50.678;12.280;2023-05-13T11:26:57;97901.91;;;20.41
79756;BMP280;69239;50.678;12.280;2023-05-13T11:29:34;97901.38;;;20.25
79756;BMP280;69239;50.678;12.280;2023-05-13T11:32:01;97900.81;;;20.09
79756;BMP280;69239;50.678;12.280;2023-05-13T11:34:28;97902.91;;;19.93
79756;BMP280;69239;50.678;12.280;2023-05-13T11:37:08;97904.25;;;19.79
79756;BMP280;69239;50.678;12.280;2023-05-13T11:39:34;97901.06;;;19.67
79756;BMP280;69239;50.678;12.280;2023-05-13T11:41:59;97904.75;;;19.55
79756;BMP280;69239;50.678;12.280;2023-05-13T11:44:28;97912.28;;;19.50
79756;BMP280;69239;50.678;12.280;2023-05-13T11:46:54;97918.31;;;19.43
79756;BMP280;69239;50.678;12.280;2023-05-13T11:49:42;97917.06;;;19.37
79756;BMP280;69239;50.678;12.280;2023-05-13T11:52:08;97916.97;;;19.30
79756;BMP280;69239;50.678;12.280;2023-05-13T11:54:48;97907.31;;;19.22
79756;BMP280;69239;50.678;12.280;2023-05-13T11:59:48;97914.88;;;19.16
79756;BMP280;69239;50.678;12.280;2023-05-13T12:02:13;97916.03;;;19.19
79756;BMP280;69239;50.678;12.280;2023-05-13T12:04:39;97922.94;;;19.20
79756;BMP280;69239;50.678;12.280;2023-05-13T12:07:04;97923.59;;;19.13
79756;BMP280;69239;50.678;12.280;2023-05-13T12:09:29;97922.69;;;19.05
79756;BMP280;69239;50.678;12.280;2023-05-13T12:11:55;97929.94;;;19.05
79756;BMP280;69239;50.678;12.280;2023-05-13T12:14:21;97930.00;;;19.09
79756;BMP280;69239;50.678;12.280;2023-05-13T12:16:46;97922.41;;;19.11
79756;BMP280;69239;50.678;12.280;2023-05-13T12:19:13;97930.81;;;19.13
79756;BMP280;69239;50.678;12.280;2023-05-13T12:21:38;97919.03;;;19.14
79756;BMP280;69239;50.678;12.280;2023-05-13T12:24:19;97928.66;;;19.22
79756;BMP280;69239;50.678;12.280;2023-05-13T12:26:46;97927.97;;;19.25
79756;BMP280;69239;50.678;12.280;2023-05-13T12:29:11;97928.66;;;19.22
79756;BMP280;69239;50.678;12.280;2023-05-13T12:31:36;97926.31;;;19.17
79756;BMP280;69239;50.678;12.280;2023-05-13T12:34:02;97927.84;;;19.18
79756;BMP280;69239;50.678;12.280;2023-05-13T12:36:30;97932.50;;;19.21
79756;BMP280;69239;50.678;12.280;2023-05-13T12:39:07;97935.50;;;19.19
79756;BMP280;69239;50.678;12.280;2023-05-13T12:41:35;97934.44;;;19.24
79756;BMP280;69239;50.678;12.280;2023-05-13T12:44:07;97936.50;;;19.34
79756;BMP280;69239;50.678;12.280;2023-05-13T12:46:33;97922.84;;;19.39
79756;BMP280;69239;50.678;12.280;2023-05-13T12:49:00;97935.75;;;19.37
79756;BMP280;69239;50.678;12.280;2023-05-13T12:51:27;97927.91;;;19.21
79756;BMP280;69239;50.678;12.280;2023-05-13T12:53:53;97932.91;;;19.00
79756;BMP280;69239;50.678;12.280;2023-05-13T12:56:20;97936.50;;;18.85
79756;BMP280;69239;50.678;12.280;2023-05-13T12:58:47;97944.66;;;18.73
79756;BMP280;69239;50.678;12.280;2023-05-13T13:01:12;97931.44;;;18.57
79756;BMP280;69239;50.678;12.280;2023-05-13T13:03:38;97931.34;;;18.53
79756;BMP280;69239;50.678;12.280;2023-05-13T13:06:03;97937.34;;;18.47
79756;BMP280;69239;50.678;12.280;2023-05-13T13:08:29;97934.94;;;18.42
79756;BMP280;69239;50.678;12.280;2023-05-13T13:10:54;97933.69;;;18.36
79756;BMP280;69239;50.678;12.280;2023-05-13T13:13:20;97938.19;;;18.31
79756;BMP280;69239;50.678;12.280;2023-05-13T13:15:45;97936.63;;;18.30
79756;BMP280;69239;50.678;12.280;2023-05-13T13:18:10;97945.06;;;18.32
79756;BMP280;69239;50.678;12.280;2023-05-13T13:20:36;97941.97;;;18.30
79756;BMP280;69239;50.678;12.280;2023-05-13T13:23:01;97940.00;;;18.27
79756;BMP280;69239;50.678;12.280;2023-05-13T13:25:27;97941.63;;;18.32
79756;BMP280;69239;50.678;12.280;2023-05-13T13:27:53;97940.56;;;18.37
79756;BMP280;69239;50.678;12.280;2023-05-13T13:30:18;97937.19;;;18.40
79756;BMP280;69239;50.678;12.280;2023-05-13T13:32:44;97932.69;;;18.44
79756;BMP280;69239;50.678;12.280;2023-05-13T13:35:09;97933.13;;;18.46
79756;BMP280;69239;50.678;12.280;2023-05-13T13:37:35;97935.06;;;18.49
79756;BMP280;69239;50.678;12.280;2023-05-13T13:40:01;97940.84;;;18.51
79756;BMP280;69239;50.678;12.280;2023-05-13T13:42:26;97931.63;;;18.48
79756;BMP280;69239;50.678;12.280;2023-05-13T13:44:52;97926.75;;;18.50
79756;BMP280;69239;50.678;12.280;2023-05-13T13:47:17;97925.66;;;18.55
79756;BMP280;69239;50.678;12.280;2023-05-13T13:49:42;97925.38;;;18.60
79756;BMP280;69239;50.678;12.280;2023-05-13T13:52:08;97926.22;;;18.64
79756;BMP280;69239;50.678;12.280;2023-05-13T13:54:33;97924.25;;;18.61
79756;BMP280;69239;50.678;12.280;2023-05-13T13:56:58;97922.28;;;18.58
79756;BMP280;69239;50.678;12.280;2023-05-13T13:59:24;97927.41;;;18.66
79756;BMP280;69239;50.678;12.280;2023-05-13T14:01:49;97923.34;;;18.76
79756;BMP280;69239;50.678;12.280;2023-05-13T14:04:16;97925.72;;;18.81
79756;BMP280;69239;50.678;12.280;2023-05-13T14:06:52;97921.69;;;18.68
79756;BMP280;69239;50.678;12.280;2023-05-13T14:09:17;97926.78;;;18.54
79756;BMP280;69239;50.678;12.280;2023-05-13T14:11:43;97921.19;;;18.40
79756;BMP280;69239;50.678;12.280;2023-05-13T14:14:08;97916.44;;;18.29